sensor_id;sensor_type;location;lat;lon;timestamp;P1;durP1;ratioP1;P2;durP2;ratioP2
3801;SDS011;1916;51.798;12.246;2023-05-10T00:01:06;4.20;;;3.87;;
3801;SDS011;1916;51.798;12.246;2023-05-10T00:03:09;6.03;;;4.50;;
3801;SDS011;1916;51.798;12.246;2023-05-10T00:05:11;5.40;;;4.90;;
3801;SDS011;1916;51.798;12.246;2023-05-10T00:07:13;5.80;;;5.20;;
3801;SDS011;1916;51.798;12.246;2023-05-10T00:09:15;9.63;;;5.80;;
3801;SDS011;1916;51.798;12.246;2023-05-10T00:11:17;5.40;;;4.60;;
3801;SDS011;1916;51.798;12.246;2023-05-10T00:13:22;5.70;;;5.03;;
3801;SDS011;1916;51.798;12.246;2023-05-10T00:15:25;9.00;;;4.93;;
3801;SDS011;1916;51.798;12.246;2023-05-10T00:17:27;6.73;;;5.00;;
3801;SDS011;1916;51.798;12.246;2023-05-10T00:19:29;7.23;;;5.00;;
3801;SDS011;1916;51.798;12.246;2023-05-10T00:21:31;6.17;;;5.03;;
3801;SDS011;1916;51.798;12.246;2023-05-10T00:23:35;7.20;;;5.27;;
3801;SDS011;1916;51.798;12.246;2023-05-10T00:25:37;6.43;;;4.63;;
3801;SDS011;1916;51.798;12.246;2023-05-10T00:27:39;6.00;;;4.93;;
3801;SDS011;1916;51.798;12.246;2023-05-10T00:29:41;5.60;;;5.10;;
3801;SDS011;1916;51.798;12.246;2023-05-10T00:31:43;5.40;;;4.77;;
3801;SDS011;1916;51.798;12.246;2023-05-10T00:33:45;6.07;;;5.47;;
3801;SDS011;1916;51.798;12.246;2023-05-10T00:35:47;5.53;;;4.77;;
3801;SDS011;1916;51.798;12.246;2023-05-10T00:37:49;5.00;;;4.33;;
3801;SDS011;1916;51.798;12.246;2023-05-10T00:39:51;6.07;;;5.07;;
3801;SDS011;1916;51.798;12.246;2023-05-10T00:41:53;8.47;;;5.70;;
3801;SDS011;1916;51.798;12.246;2023-05-10T00:43:56;6.10;;;5.50;;
3801;SDS011;1916;51.798;12.246;2023-05-10T00:45:58;5.47;;;4.90;;
3801;SDS011;1916;51.798;12.246;2023-05-10T00:48:00;6.43;;;5.20;;
3801;SDS011;1916;51.798;12.246;2023-05-10T00:50:04;5.73;;;5.23;;
3801;SDS011;1916;51.798;12.246;2023-05-10T00:52:07;6.53;;;5.20;;
3801;SDS011;1916;51.798;12.246;2023-05-10T00:54:13;4.60;;;4.20;;
3801;SDS011;1916;51.798;12.246;2023-05-10T00:56:16;5.30;;;4.70;;
3801;SDS011;1916;51.798;12.246;2023-05-10T00:58:19;5.50;;;4.73;;
3801;SDS011;1916;51.798;12.246;2023-05-10T01:00:21;5.60;;;4.77;;
3801;SDS011;1916;51.798;12.246;2023-05-10T01:02:23;5.60;;;5.10;;
3801;SDS011;1916;51.798;12.246;2023-05-10T01:04:25;7.70;;;4.83;;
3801;SDS011;1916;51.798;12.246;2023-05-10T01:06:28;11.30;;;5.20;;
3801;SDS011;1916;51.798;12.246;2023-05-10T01:08:30;5.47;;;4.97;;
3801;SDS011;1916;51.798;12.246;2023-05-10T01:10:32;6.23;;;5.03;;
3801;SDS011;1916;51.798;12.246;2023-05-10T01:12:35;5.87;;;5.33;;
3801;SDS011;1916;51.798;12.246;2023-05-10T01:14:40;5.73;;;5.17;;
3801;SDS011;1916;51.798;12.246;2023-05-10T01:16:42;5.73;;;5.10;;
3801;SDS011;1916;51.798;12.246;2023-05-10T01:18:45;6.67;;;5.20;;
3801;SDS011;1916;51.798;12.246;2023-05-10T01:20:48;5.87;;;4.83;;
3801;SDS011;1916;51.798;12.246;2023-05-10T01:35:17;6.53;;;5.70;;
3801;SDS011;1916;51.798;12.246;2023-05-10T01:37:40;5.77;;;5.23;;
3801;SDS011;1916;51.798;12.246;2023-05-10T01:39:49;6.50;;;5.80;;
3801;SDS011;1916;51.798;12.246;2023-05-10T01:41:55;6.53;;;5.70;;
3801;SDS011;1916;51.798;12.246;2023-05-10T01:44:24;11.03;;;5.27;;
3801;SDS011;1916;51.798;12.246;2023-05-10T01:46:52;5.83;;;4.90;;
3801;SDS011;1916;51.798;12.246;2023-05-10T01:48:58;6.20;;;5.60;;
3801;SDS011;1916;51.798;12.246;2023-05-10T01:51:02;5.23;;;4.80;;
3801;SDS011;1916;51.798;12.246;2023-05-10T01:53:08;5.57;;;4.97;;
3801;SDS011;1916;51.798;12.246;2023-05-10T01:55:13;6.77;;;6.10;;
3801;SDS011;1916;51.798;12.246;2023-05-10T01:57:17;6.43;;;5.40;;
3801;SDS011;1916;51.798;12.246;2023-05-10T01:59:21;10.10;;;5.47;;
3801;SDS011;1916;51.798;12.246;2023-05-10T02:01:24;6.13;;;5.60;;
3801;SDS011;1916;51.798;12.246;2023-05-10T02:03:27;7.50;;;5.30;;
3801;SDS011;1916;51.798;12.246;2023-05-10T02:05:31;7.23;;;4.80;;
3801;SDS011;1916;51.798;12.246;2023-05-10T02:07:35;7.13;;;5.90;;
3801;SDS011;1916;51.798;12.246;2023-05-10T02:09:38;5.77;;;5.17;;
3801;SDS011;1916;51.798;12.246;2023-05-10T02:11:41;6.00;;;5.47;;
3801;SDS011;1916;51.798;12.246;2023-05-10T02:13:43;6.10;;;5.50;;
3801;SDS011;1916;51.798;12.246;2023-05-10T02:15:46;7.00;;;5.73;;
3801;SDS011;1916;51.798;12.246;2023-05-10T02:17:50;6.10;;;5.50;;
3801;SDS011;1916;51.798;12.246;2023-05-10T02:19:52;6.50;;;5.47;;
3801;SDS011;1916;51.798;12.246;2023-05-10T02:21:55;5.10;;;4.60;;
3801;SDS011;1916;51.798;12.246;2023-05-10T02:23:59;6.23;;;5.63;;
3801;SDS011;1916;51.798;12.246;2023-05-10T02:26:03;6.60;;;5.97;;
3801;SDS011;1916;51.798;12.246;2023-05-10T02:28:07;6.23;;;5.63;;
3801;SDS011;1916;51.798;12.246;2023-05-10T02:30:10;6.70;;;5.80;;
3801;SDS011;1916;51.798;12.246;2023-05-10T02:32:12;7.47;;;6.07;;
3801;SDS011;1916;51.798;12.246;2023-05-10T02:34:17;6.20;;;5.60;;
3801;SDS011;1916;51.798;12.246;2023-05-10T02:36:19;6.40;;;5.80;;
3801;SDS011;1916;51.798;12.246;2023-05-10T02:38:22;8.67;;;5.73;;
3801;SDS011;1916;51.798;12.246;2023-05-10T02:40:26;6.20;;;5.60;;
3801;SDS011;1916;51.798;12.246;2023-05-10T02:42:31;8.37;;;6.20;;
3801;SDS011;1916;51.798;12.246;2023-05-10T02:44:34;10.10;;;6.47;;
3801;SDS011;1916;51.798;12.246;2023-05-10T02:46:37;11.00;;;5.97;;
3801;SDS011;1916;51.798;12.246;2023-05-10T02:48:40;9.67;;;6.50;;
3801;SDS011;1916;51.798;12.246;2023-05-10T02:50:44;8.33;;;6.33;;
3801;SDS011;1916;51.798;12.246;2023-05-10T02:52:47;8.50;;;6.93;;
3801;SDS011;1916;51.798;12.246;2023-05-10T02:54:58;7.80;;;7.00;;
3801;SDS011;1916;51.798;12.246;2023-05-10T02:57:03;7.97;;;6.50;;
3801;SDS011;1916;51.798;12.246;2023-05-10T02:59:06;9.73;;;6.50;;
3801;SDS011;1916;51.798;12.246;2023-05-10T03:01:08;8.20;;;6.80;;
3801;SDS011;1916;51.798;12.246;2023-05-10T03:03:10;9.50;;;6.70;;
3801;SDS011;1916;51.798;12.246;2023-05-10T03:05:13;8.37;;;5.93;;
3801;SDS011;1916;51.798;12.246;2023-05-10T03:07:15;9.00;;;6.50;;
3801;SDS011;1916;51.798;12.246;2023-05-10T03:09:18;7.13;;;6.43;;
3801;SDS011;1916;51.798;12.246;2023-05-10T03:16:15;7.40;;;6.23;;
3801;SDS011;1916;51.798;12.246;2023-05-10T03:18:21;6.70;;;6.10;;
3801;SDS011;1916;51.798;12.246;2023-05-10T03:20:29;7.93;;;6.40;;
3801;SDS011;1916;51.798;12.246;2023-05-10T03:22:34;7.83;;;6.57;;
3801;SDS011;1916;51.798;12.246;2023-05-10T03:24:39;7.57;;;6.80;;
3801;SDS011;1916;51.798;12.246;2023-05-10T03:26:43;8.70;;;6.50;;
3801;SDS011;1916;51.798;12.246;2023-05-10T03:28:51;8.10;;;6.93;;
3801;SDS011;1916;51.798;12.246;2023-05-10T03:30:54;8.60;;;7.00;;
3801;SDS011;1916;51.798;12.246;2023-05-10T03:32:56;7.70;;;6.93;;
3801;SDS011;1916;51.798;12.246;2023-05-10T03:34:59;8.93;;;6.57;;
3801;SDS011;1916;51.798;12.246;2023-05-10T03:37:01;10.37;;;6.97;;
3801;SDS011;1916;51.798;12.246;2023-05-10T03:39:05;7.57;;;5.40;;
3801;SDS011;1916;51.798;12.246;2023-05-10T03:41:08;7.27;;;6.13;;
3801;SDS011;1916;51.798;12.246;2023-05-10T03:43:10;6.47;;;5.87;;
3801;SDS011;1916;51.798;12.246;2023-05-10T03:45:12;7.00;;;5.93;;
3801;SDS011;1916;51.798;12.246;2023-05-10T03:47:14;7.47;;;5.70;;
3801;SDS011;1916;51.798;12.246;2023-05-10T03:49:17;7.73;;;6.00;;
3801;SDS011;1916;51.798;12.246;2023-05-10T03:51:19;8.50;;;6.10;;
3801;SDS011;1916;51.798;12.246;2023-05-10T03:53:22;12.23;;;6.20;;
3801;SDS011;1916;51.798;12.246;2023-05-10T03:55:25;10.37;;;6.20;;
3801;SDS011;1916;51.798;12.246;2023-05-10T03:57:27;6.70;;;6.00;;
3801;SDS011;1916;51.798;12.246;2023-05-10T03:59:29;7.30;;;5.90;;
3801;SDS011;1916;51.798;12.246;2023-05-10T04:01:31;7.47;;;6.40;;
3801;SDS011;1916;51.798;12.246;2023-05-10T04:03:34;7.97;;;6.30;;
3801;SDS011;1916;51.798;12.246;2023-05-10T04:05:38;10.30;;;6.00;;
3801;SDS011;1916;51.798;12.246;2023-05-10T04:07:41;6.53;;;5.93;;
3801;SDS011;1916;51.798;12.246;2023-05-10T04:09:43;7.00;;;6.10;;
3801;SDS011;1916;51.798;12.246;2023-05-10T04:11:45;7.23;;;6.40;;
3801;SDS011;1916;51.798;12.246;2023-05-10T04:13:47;6.37;;;5.77;;
3801;SDS011;1916;51.798;12.246;2023-05-10T04:15:49;6.87;;;6.10;;
3801;SDS011;1916;51.798;12.246;2023-05-10T04:17:51;9.40;;;6.27;;
3801;SDS011;1916;51.798;12.246;2023-05-10T04:19:53;6.23;;;5.63;;
3801;SDS011;1916;51.798;12.246;2023-05-10T04:21:56;6.53;;;5.43;;
3801;SDS011;1916;51.798;12.246;2023-05-10T04:23:59;9.53;;;6.27;;
3801;SDS011;1916;51.798;12.246;2023-05-10T04:26:01;7.20;;;5.90;;
3801;SDS011;1916;51.798;12.246;2023-05-10T04:28:03;5.93;;;5.33;;
3801;SDS011;1916;51.798;12.246;2023-05-10T04:30:05;6.67;;;5.77;;
3801;SDS011;1916;51.798;12.246;2023-05-10T04:32:10;6.30;;;5.40;;
3801;SDS011;1916;51.798;12.246;2023-05-10T04:34:12;7.10;;;6.10;;
3801;SDS011;1916;51.798;12.246;2023-05-10T04:36:14;8.23;;;6.40;;
3801;SDS011;1916;51.798;12.246;2023-05-10T04:38:16;9.77;;;5.83;;
3801;SDS011;1916;51.798;12.246;2023-05-10T04:40:18;7.93;;;5.63;;
3801;SDS011;1916;51.798;12.246;2023-05-10T04:42:21;6.00;;;5.40;;
3801;SDS011;1916;51.798;12.246;2023-05-10T04:44:23;7.10;;;5.17;;
3801;SDS011;1916;51.798;12.246;2023-05-10T04:46:25;7.90;;;5.97;;
3801;SDS011;1916;51.798;12.246;2023-05-10T04:48:28;7.63;;;5.20;;
3801;SDS011;1916;51.798;12.246;2023-05-10T04:50:30;6.00;;;5.47;;
3801;SDS011;1916;51.798;12.246;2023-05-10T04:52:33;7.23;;;5.20;;
3801;SDS011;1916;51.798;12.246;2023-05-10T04:54:35;5.87;;;4.93;;
3801;SDS011;1916;51.798;12.246;2023-05-10T04:56:37;6.83;;;5.50;;
3801;SDS011;1916;51.798;12.246;2023-05-10T04:58:39;7.23;;;5.57;;
3801;SDS011;1916;51.798;12.246;2023-05-10T05:00:42;6.93;;;4.93;;
3801;SDS011;1916;51.798;12.246;2023-05-10T05:02:44;9.53;;;5.73;;
3801;SDS011;1916;51.798;12.246;2023-05-10T05:04:49;5.90;;;5.00;;
3801;SDS011;1916;51.798;12.246;2023-05-10T05:06:52;5.80;;;5.20;;
3801;SDS011;1916;51.798;12.246;2023-05-10T05:08:54;5.73;;;5.23;;
3801;SDS011;1916;51.798;12.246;2023-05-10T05:10:56;6.53;;;4.80;;
3801;SDS011;1916;51.798;12.246;2023-05-10T05:12:58;5.37;;;4.87;;
3801;SDS011;1916;51.798;12.246;2023-05-10T05:15:01;9.33;;;5.50;;
3801;SDS011;1916;51.798;12.246;2023-05-10T05:17:04;5.57;;;4.83;;
3801;SDS011;1916;51.798;12.246;2023-05-10T05:19:06;5.00;;;4.50;;
3801;SDS011;1916;51.798;12.246;2023-05-10T05:21:17;5.60;;;4.70;;
3801;SDS011;1916;51.798;12.246;2023-05-10T05:23:21;5.70;;;4.60;;
3801;SDS011;1916;51.798;12.246;2023-05-10T05:25:26;6.37;;;5.77;;
3801;SDS011;1916;51.798;12.246;2023-05-10T05:27:28;6.23;;;5.27;;
3801;SDS011;1916;51.798;12.246;2023-05-10T05:29:31;4.87;;;4.27;;
3801;SDS011;1916;51.798;12.246;2023-05-10T05:31:33;9.17;;;5.10;;
3801;SDS011;1916;51.798;12.246;2023-05-10T05:33:35;6.10;;;5.10;;
3801;SDS011;1916;51.798;12.246;2023-05-10T05:35:37;6.27;;;4.63;;
3801;SDS011;1916;51.798;12.246;2023-05-10T05:37:39;5.07;;;4.50;;
3801;SDS011;1916;51.798;12.246;2023-05-10T05:39:42;5.17;;;4.67;;
3801;SDS011;1916;51.798;12.246;2023-05-10T05:41:44;6.23;;;4.67;;
3801;SDS011;1916;51.798;12.246;2023-05-10T05:43:46;6.03;;;4.23;;
3801;SDS011;1916;51.798;12.246;2023-05-10T05:45:48;9.27;;;4.73;;
3801;SDS011;1916;51.798;12.246;2023-05-10T05:47:51;6.97;;;3.80;;
3801;SDS011;1916;51.798;12.246;2023-05-10T05:49:53;4.97;;;3.70;;
3801;SDS011;1916;51.798;12.246;2023-05-10T05:51:58;5.00;;;4.10;;
3801;SDS011;1916;51.798;12.246;2023-05-10T05:54:02;8.50;;;3.77;;
3801;SDS011;1916;51.798;12.246;2023-05-10T05:56:06;6.07;;;3.93;;
3801;SDS011;1916;51.798;12.246;2023-05-10T05:58:08;8.30;;;3.47;;
3801;SDS011;1916;51.798;12.246;2023-05-10T06:00:10;5.87;;;3.40;;
3801;SDS011;1916;51.798;12.246;2023-05-10T06:02:15;4.53;;;3.33;;
3801;SDS011;1916;51.798;12.246;2023-05-10T06:04:18;4.33;;;3.37;;
3801;SDS011;1916;51.798;12.246;2023-05-10T06:06:20;6.70;;;3.67;;
3801;SDS011;1916;51.798;12.246;2023-05-10T06:08:22;6.87;;;3.60;;
3801;SDS011;1916;51.798;12.246;2023-05-10T06:10:24;4.30;;;3.87;;
3801;SDS011;1916;51.798;12.246;2023-05-10T06:12:27;8.43;;;3.70;;
3801;SDS011;1916;51.798;12.246;2023-05-10T06:14:29;4.23;;;3.60;;
3801;SDS011;1916;51.798;12.246;2023-05-10T06:16:31;5.13;;;3.77;;
3801;SDS011;1916;51.798;12.246;2023-05-10T06:18:33;5.27;;;4.17;;
3801;SDS011;1916;51.798;12.246;2023-05-10T06:20:35;6.60;;;3.80;;
3801;SDS011;1916;51.798;12.246;2023-05-10T06:22:37;5.40;;;3.70;;
3801;SDS011;1916;51.798;12.246;2023-05-10T06:24:39;13.93;;;3.83;;
3801;SDS011;1916;51.798;12.246;2023-05-10T06:26:41;5.00;;;3.33;;
3801;SDS011;1916;51.798;12.246;2023-05-10T06:28:43;6.40;;;3.70;;
3801;SDS011;1916;51.798;12.246;2023-05-10T06:30:45;3.50;;;3.20;;
3801;SDS011;1916;51.798;12.246;2023-05-10T06:32:47;7.70;;;3.93;;
3801;SDS011;1916;51.798;12.246;2023-05-10T06:34:49;4.10;;;3.60;;
3801;SDS011;1916;51.798;12.246;2023-05-10T06:36:51;5.70;;;3.67;;
3801;SDS011;1916;51.798;12.246;2023-05-10T06:38:53;6.27;;;3.60;;
3801;SDS011;1916;51.798;12.246;2023-05-10T06:40:56;5.50;;;4.07;;
3801;SDS011;1916;51.798;12.246;2023-05-10T06:42:58;4.30;;;3.70;;
3801;SDS011;1916;51.798;12.246;2023-05-10T06:45:01;4.37;;;3.67;;
3801;SDS011;1916;51.798;12.246;2023-05-10T06:47:03;3.87;;;3.50;;
3801;SDS011;1916;51.798;12.246;2023-05-10T06:49:06;4.33;;;3.77;;
3801;SDS011;1916;51.798;12.246;2023-05-10T06:51:08;4.67;;;4.23;;
3801;SDS011;1916;51.798;12.246;2023-05-10T06:53:10;5.10;;;3.97;;
3801;SDS011;1916;51.798;12.246;2023-05-10T06:55:13;5.43;;;3.60;;
3801;SDS011;1916;51.798;12.246;2023-05-10T06:57:15;9.83;;;3.17;;
3801;SDS011;1916;51.798;12.246;2023-05-10T06:59:32;11.03;;;3.90;;
3801;SDS011;1916;51.798;12.246;2023-05-10T07:01:34;4.47;;;3.20;;
3801;SDS011;1916;51.798;12.246;2023-05-10T07:03:36;4.90;;;3.80;;
3801;SDS011;1916;51.798;12.246;2023-05-10T07:05:38;4.40;;;3.80;;
3801;SDS011;1916;51.798;12.246;2023-05-10T07:07:40;7.50;;;3.60;;
3801;SDS011;1916;51.798;12.246;2023-05-10T07:09:43;6.77;;;3.67;;
3801;SDS011;1916;51.798;12.246;2023-05-10T07:11:45;6.53;;;3.73;;
3801;SDS011;1916;51.798;12.246;2023-05-10T07:13:47;5.63;;;3.93;;
3801;SDS011;1916;51.798;12.246;2023-05-10T07:15:49;6.53;;;3.60;;
3801;SDS011;1916;51.798;12.246;2023-05-10T07:17:51;6.53;;;3.83;;
3801;SDS011;1916;51.798;12.246;2023-05-10T07:19:54;6.43;;;4.10;;
3801;SDS011;1916;51.798;12.246;2023-05-10T07:21:56;9.00;;;4.60;;
3801;SDS011;1916;51.798;12.246;2023-05-10T07:23:58;6.50;;;3.90;;
3801;SDS011;1916;51.798;12.246;2023-05-10T07:26:01;9.00;;;3.90;;
3801;SDS011;1916;51.798;12.246;2023-05-10T07:28:04;4.93;;;3.70;;
3801;SDS011;1916;51.798;12.246;2023-05-10T07:30:06;4.90;;;3.90;;
3801;SDS011;1916;51.798;12.246;2023-05-10T07:32:08;7.30;;;4.17;;
3801;SDS011;1916;51.798;12.246;2023-05-10T07:34:11;10.30;;;4.80;;
3801;SDS011;1916;51.798;12.246;2023-05-10T07:36:13;9.30;;;4.07;;
3801;SDS011;1916;51.798;12.246;2023-05-10T07:38:15;4.37;;;3.97;;
3801;SDS011;1916;51.798;12.246;2023-05-10T07:40:17;9.30;;;4.40;;
3801;SDS011;1916;51.798;12.246;2023-05-10T07:42:19;5.50;;;4.40;;
3801;SDS011;1916;51.798;12.246;2023-05-10T07:44:21;11.40;;;4.50;;
3801;SDS011;1916;51.798;12.246;2023-05-10T07:46:24;5.50;;;4.07;;
3801;SDS011;1916;51.798;12.246;2023-05-10T07:48:26;9.20;;;3.70;;
3801;SDS011;1916;51.798;12.246;2023-05-10T07:50:28;4.57;;;4.17;;
3801;SDS011;1916;51.798;12.246;2023-05-10T07:52:30;10.97;;;4.47;;
3801;SDS011;1916;51.798;12.246;2023-05-10T07:54:32;5.23;;;4.00;;
3801;SDS011;1916;51.798;12.246;2023-05-10T07:56:35;7.70;;;4.87;;
3801;SDS011;1916;51.798;12.246;2023-05-10T07:58:37;6.30;;;4.03;;
3801;SDS011;1916;51.798;12.246;2023-05-10T08:00:40;5.33;;;3.70;;
3801;SDS011;1916;51.798;12.246;2023-05-10T08:02:42;4.50;;;4.10;;
3801;SDS011;1916;51.798;12.246;2023-05-10T08:04:45;9.47;;;4.10;;
3801;SDS011;1916;51.798;12.246;2023-05-10T08:06:47;6.97;;;5.20;;
3801;SDS011;1916;51.798;12.246;2023-05-10T08:08:49;6.63;;;4.80;;
3801;SDS011;1916;51.798;12.246;2023-05-10T08:10:52;4.90;;;4.10;;
3801;SDS011;1916;51.798;12.246;2023-05-10T08:12:54;5.83;;;4.30;;
3801;SDS011;1916;51.798;12.246;2023-05-10T08:14:56;10.43;;;4.47;;
3801;SDS011;1916;51.798;12.246;2023-05-10T08:16:58;12.73;;;5.13;;
3801;SDS011;1916;51.798;12.246;2023-05-10T08:19:00;6.07;;;4.07;;
3801;SDS011;1916;51.798;12.246;2023-05-10T08:21:03;5.60;;;4.17;;
3801;SDS011;1916;51.798;12.246;2023-05-10T08:23:05;5.10;;;4.20;;
3801;SDS011;1916;51.798;12.246;2023-05-10T08:25:07;4.80;;;4.27;;
3801;SDS011;1916;51.798;12.246;2023-05-10T08:27:10;7.83;;;4.77;;
3801;SDS011;1916;51.798;12.246;2023-05-10T08:29:12;5.20;;;4.33;;
3801;SDS011;1916;51.798;12.246;2023-05-10T08:31:14;8.90;;;4.13;;
3801;SDS011;1916;51.798;12.246;2023-05-10T08:33:17;6.70;;;5.03;;
3801;SDS011;1916;51.798;12.246;2023-05-10T08:35:20;5.40;;;4.17;;
3801;SDS011;1916;51.798;12.246;2023-05-10T08:37:23;5.63;;;4.30;;
3801;SDS011;1916;51.798;12.246;2023-05-10T08:39:25;7.77;;;4.40;;
3801;SDS011;1916;51.798;12.246;2023-05-10T08:41:31;11.20;;;5.10;;
3801;SDS011;1916;51.798;12.246;2023-05-10T08:43:35;6.97;;;4.03;;
3801;SDS011;1916;51.798;12.246;2023-05-10T08:45:38;8.60;;;4.50;;
3801;SDS011;1916;51.798;12.246;2023-05-10T08:47:41;4.70;;;4.07;;
3801;SDS011;1916;51.798;12.246;2023-05-10T08:49:44;4.37;;;3.97;;
3801;SDS011;1916;51.798;12.246;2023-05-10T08:51:51;7.03;;;4.80;;
3801;SDS011;1916;51.798;12.246;2023-05-10T08:53:54;6.07;;;3.93;;
3801;SDS011;1916;51.798;12.246;2023-05-10T08:55:56;5.20;;;4.70;;
3801;SDS011;1916;51.798;12.246;2023-05-10T08:58:02;4.60;;;4.17;;
3801;SDS011;1916;51.798;12.246;2023-05-10T09:00:05;5.90;;;4.03;;
3801;SDS011;1916;51.798;12.246;2023-05-10T09:02:08;6.40;;;4.43;;
3801;SDS011;1916;51.798;12.246;2023-05-10T09:04:12;22.37;;;4.90;;
3801;SDS011;1916;51.798;12.246;2023-05-10T09:06:14;5.07;;;4.57;;
3801;SDS011;1916;51.798;12.246;2023-05-10T09:08:17;4.40;;;4.00;;
3801;SDS011;1916;51.798;12.246;2023-05-10T09:10:20;8.07;;;4.30;;
3801;SDS011;1916;51.798;12.246;2023-05-10T09:12:22;5.80;;;3.70;;
3801;SDS011;1916;51.798;12.246;2023-05-10T09:14:25;4.37;;;3.60;;
3801;SDS011;1916;51.798;12.246;2023-05-10T09:16:27;7.90;;;4.00;;
3801;SDS011;1916;51.798;12.246;2023-05-10T09:18:29;4.17;;;3.77;;
3801;SDS011;1916;51.798;12.246;2023-05-10T09:20:32;4.23;;;3.80;;
3801;SDS011;1916;51.798;12.246;2023-05-10T09:22:34;12.10;;;4.63;;
3801;SDS011;1916;51.798;12.246;2023-05-10T09:24:37;4.13;;;3.73;;
3801;SDS011;1916;51.798;12.246;2023-05-10T09:26:47;5.03;;;3.80;;
3801;SDS011;1916;51.798;12.246;2023-05-10T09:30:53;4.93;;;3.77;;
3801;SDS011;1916;51.798;12.246;2023-05-10T09:32:57;8.47;;;4.37;;
3801;SDS011;1916;51.798;12.246;2023-05-10T09:35:05;5.73;;;4.67;;
3801;SDS011;1916;51.798;12.246;2023-05-10T09:37:08;4.87;;;4.20;;
3801;SDS011;1916;51.798;12.246;2023-05-10T09:39:11;4.67;;;4.17;;
3801;SDS011;1916;51.798;12.246;2023-05-10T09:41:19;5.97;;;4.33;;
3801;SDS011;1916;51.798;12.246;2023-05-10T09:43:23;6.10;;;4.13;;
3801;SDS011;1916;51.798;12.246;2023-05-10T09:45:29;5.37;;;4.50;;
3801;SDS011;1916;51.798;12.246;2023-05-10T09:47:33;6.57;;;5.00;;
3801;SDS011;1916;51.798;12.246;2023-05-10T09:49:37;5.87;;;5.13;;
3801;SDS011;1916;51.798;12.246;2023-05-10T09:51:39;6.60;;;4.50;;
3801;SDS011;1916;51.798;12.246;2023-05-10T09:53:41;8.43;;;4.07;;
3801;SDS011;1916;51.798;12.246;2023-05-10T09:55:45;4.40;;;4.00;;
3801;SDS011;1916;51.798;12.246;2023-05-10T09:57:48;7.97;;;4.27;;
3801;SDS011;1916;51.798;12.246;2023-05-10T09:59:51;5.77;;;4.10;;
3801;SDS011;1916;51.798;12.246;2023-05-10T10:01:56;4.60;;;3.77;;
3801;SDS011;1916;51.798;12.246;2023-05-10T10:03:59;11.70;;;4.27;;
3801;SDS011;1916;51.798;12.246;2023-05-10T10:06:05;7.30;;;4.13;;
3801;SDS011;1916;51.798;12.246;2023-05-10T10:08:23;5.00;;;4.50;;
3801;SDS011;1916;51.798;12.246;2023-05-10T10:10:26;4.23;;;3.83;;
3801;SDS011;1916;51.798;12.246;2023-05-10T10:12:28;6.43;;;4.30;;
3801;SDS011;1916;51.798;12.246;2023-05-10T10:14:30;5.33;;;4.50;;
3801;SDS011;1916;51.798;12.246;2023-05-10T10:16:33;6.27;;;4.70;;
3801;SDS011;1916;51.798;12.246;2023-05-10T10:18:35;6.50;;;4.10;;
3801;SDS011;1916;51.798;12.246;2023-05-10T10:20:40;24.67;;;4.90;;
3801;SDS011;1916;51.798;12.246;2023-05-10T10:22:42;5.13;;;4.60;;
3801;SDS011;1916;51.798;12.246;2023-05-10T10:24:48;6.17;;;4.20;;
3801;SDS011;1916;51.798;12.246;2023-05-10T10:26:50;6.70;;;4.43;;
3801;SDS011;1916;51.798;12.246;2023-05-10T10:34:05;5.33;;;4.33;;
3801;SDS011;1916;51.798;12.246;2023-05-10T10:36:11;5.63;;;4.97;;
3801;SDS011;1916;51.798;12.246;2023-05-10T10:38:14;7.60;;;4.73;;
3801;SDS011;1916;51.798;12.246;2023-05-10T10:40:29;4.83;;;4.17;;
3801;SDS011;1916;51.798;12.246;2023-05-10T10:42:44;5.07;;;4.40;;
3801;SDS011;1916;51.798;12.246;2023-05-10T10:45:03;5.37;;;4.27;;
3801;SDS011;1916;51.798;12.246;2023-05-10T10:49:20;6.00;;;4.77;;
3801;SDS011;1916;51.798;12.246;2023-05-10T10:51:22;5.13;;;4.37;;
3801;SDS011;1916;51.798;12.246;2023-05-10T10:53:27;5.67;;;5.07;;
3801;SDS011;1916;51.798;12.246;2023-05-10T10:55:30;6.63;;;5.43;;
3801;SDS011;1916;51.798;12.246;2023-05-10T10:57:54;10.03;;;5.00;;
3801;SDS011;1916;51.798;12.246;2023-05-10T11:02:43;7.17;;;5.40;;
3801;SDS011;1916;51.798;12.246;2023-05-10T11:04:53;7.87;;;5.40;;
3801;SDS011;1916;51.798;12.246;2023-05-10T11:07:15;6.17;;;5.57;;
3801;SDS011;1916;51.798;12.246;2023-05-10T11:09:18;7.23;;;5.80;;
3801;SDS011;1916;51.798;12.246;2023-05-10T11:11:20;6.87;;;5.90;;
3801;SDS011;1916;51.798;12.246;2023-05-10T11:15:40;7.43;;;6.20;;
3801;SDS011;1916;51.798;12.246;2023-05-10T11:17:50;7.90;;;6.63;;
3801;SDS011;1916;51.798;12.246;2023-05-10T11:20:06;11.33;;;6.73;;
3801;SDS011;1916;51.798;12.246;2023-05-10T11:22:12;9.40;;;6.10;;
3801;SDS011;1916;51.798;12.246;2023-05-10T11:24:16;7.40;;;6.70;;
3801;SDS011;1916;51.798;12.246;2023-05-10T11:26:19;9.40;;;6.50;;
3801;SDS011;1916;51.798;12.246;2023-05-10T11:28:25;9.57;;;6.73;;
3801;SDS011;1916;51.798;12.246;2023-05-10T11:30:28;8.17;;;6.80;;
3801;SDS011;1916;51.798;12.246;2023-05-10T11:32:31;10.97;;;7.83;;
3801;SDS011;1916;51.798;12.246;2023-05-10T11:34:33;10.20;;;8.40;;
3801;SDS011;1916;51.798;12.246;2023-05-10T11:36:35;11.00;;;8.53;;
3801;SDS011;1916;51.798;12.246;2023-05-10T11:38:38;11.17;;;9.37;;
3801;SDS011;1916;51.798;12.246;2023-05-10T11:40:40;15.53;;;9.80;;
3801;SDS011;1916;51.798;12.246;2023-05-10T11:42:42;12.10;;;8.57;;
3801;SDS011;1916;51.798;12.246;2023-05-10T11:44:45;14.13;;;10.80;;
3801;SDS011;1916;51.798;12.246;2023-05-10T11:46:47;15.40;;;10.60;;
3801;SDS011;1916;51.798;12.246;2023-05-10T11:48:51;14.13;;;10.80;;
3801;SDS011;1916;51.798;12.246;2023-05-10T11:51:00;11.00;;;9.73;;
3801;SDS011;1916;51.798;12.246;2023-05-10T11:53:03;11.73;;;10.17;;
3801;SDS011;1916;51.798;12.246;2023-05-10T11:55:06;15.80;;;10.83;;
3801;SDS011;1916;51.798;12.246;2023-05-10T11:57:08;12.40;;;10.70;;
3801;SDS011;1916;51.798;12.246;2023-05-10T11:59:13;15.53;;;11.33;;
3801;SDS011;1916;51.798;12.246;2023-05-10T12:01:16;13.70;;;12.10;;
3801;SDS011;1916;51.798;12.246;2023-05-10T12:03:18;15.30;;;11.93;;
3801;SDS011;1916;51.798;12.246;2023-05-10T12:05:21;12.23;;;10.93;;
3801;SDS011;1916;51.798;12.246;2023-05-10T12:07:23;11.93;;;10.70;;
3801;SDS011;1916;51.798;12.246;2023-05-10T12:09:27;16.07;;;11.20;;
3801;SDS011;1916;51.798;12.246;2023-05-10T12:11:44;12.60;;;11.20;;
3801;SDS011;1916;51.798;12.246;2023-05-10T12:13:46;12.83;;;11.20;;
3801;SDS011;1916;51.798;12.246;2023-05-10T12:15:49;11.33;;;10.13;;
3801;SDS011;1916;51.798;12.246;2023-05-10T12:17:51;14.30;;;11.03;;
3801;SDS011;1916;51.798;12.246;2023-05-10T12:19:54;13.00;;;10.60;;
3801;SDS011;1916;51.798;12.246;2023-05-10T12:21:56;13.73;;;11.57;;
3801;SDS011;1916;51.798;12.246;2023-05-10T12:23:59;13.87;;;11.30;;
3801;SDS011;1916;51.798;12.246;2023-05-10T12:26:03;11.90;;;10.07;;
3801;SDS011;1916;51.798;12.246;2023-05-10T12:28:07;10.93;;;9.80;;
3801;SDS011;1916;51.798;12.246;2023-05-10T12:30:10;10.97;;;9.87;;
3801;SDS011;1916;51.798;12.246;2023-05-10T12:32:13;11.90;;;9.70;;
3801;SDS011;1916;51.798;12.246;2023-05-10T12:34:31;13.90;;;10.70;;
3801;SDS011;1916;51.798;12.246;2023-05-10T12:36:38;14.20;;;10.47;;
3801;SDS011;1916;51.798;12.246;2023-05-10T12:38:41;12.37;;;10.23;;
3801;SDS011;1916;51.798;12.246;2023-05-10T12:40:45;11.47;;;9.67;;
3801;SDS011;1916;51.798;12.246;2023-05-10T12:42:47;23.87;;;17.67;;
3801;SDS011;1916;51.798;12.246;2023-05-10T12:44:54;37.47;;;24.60;;
3801;SDS011;1916;51.798;12.246;2023-05-10T12:46:57;22.50;;;17.33;;
3801;SDS011;1916;51.798;12.246;2023-05-10T12:48:59;17.87;;;14.93;;
3801;SDS011;1916;51.798;12.246;2023-05-10T12:51:09;12.83;;;11.53;;
3801;SDS011;1916;51.798;12.246;2023-05-10T12:53:14;13.77;;;10.00;;
3801;SDS011;1916;51.798;12.246;2023-05-10T12:55:17;11.37;;;9.97;;
3801;SDS011;1916;51.798;12.246;2023-05-10T12:57:20;13.07;;;10.57;;
3801;SDS011;1916;51.798;12.246;2023-05-10T12:59:22;13.13;;;9.40;;
3801;SDS011;1916;51.798;12.246;2023-05-10T13:01:24;15.63;;;9.57;;
3801;SDS011;1916;51.798;12.246;2023-05-10T13:03:27;39.67;;;11.20;;
3801;SDS011;1916;51.798;12.246;2023-05-10T13:05:29;12.40;;;9.40;;